createdAt,value
2023-03-18T00:00:20.240Z,60.57
2023-03-18T00:01:20.393Z,60.67
2023-03-18T00:02:20.568Z,60.77
2023-03-18T00:03:20.779Z,60.57
2023-03-18T00:04:20.936Z,60.67
2023-03-18T00:05:21.078Z,60.67
2023-03-18T00:06:21.245Z,60.77
2023-03-18T00:07:21.404Z,60.77
2023-03-18T00:08:21.604Z,60.88
2023-03-18T00:09:21.764Z,60.77
2023-03-18T00:10:21.948Z,60.91
2023-03-18T00:11:22.117Z,61.11
2023-03-18T00:12:22.264Z,61.00
2023-03-18T00:13:22.433Z,61.00
2023-03-18T00:14:22.642Z,61.00
2023-03-18T00:15:22.788Z,61.11
2023-03-18T00:16:23.035Z,61.11
2023-03-18T00:17:23.061Z,61.11
2023-03-18T00:18:23.236Z,61.11
2023-03-18T00:19:23.383Z,61.00
2023-03-18T00:20:23.544Z,61.00
2023-03-18T00:21:23.698Z,61.11
2023-03-18T00:22:23.847Z,61.00
2023-03-18T00:23:23.994Z,61.11
2023-03-18T00:24:24.164Z,61.11
2023-03-18T00:25:24.326Z,61.21
2023-03-18T00:26:24.488Z,61.32
2023-03-18T00:27:24.646Z,61.11
2023-03-18T00:28:24.843Z,61.42
2023-03-18T00:29:25.002Z,61.42
2023-03-18T00:30:25.182Z,61.42
2023-03-18T00:31:25.330Z,61.42
2023-03-18T00:32:25.479Z,61.42
2023-03-18T00:33:25.653Z,61.42
2023-03-18T00:34:25.805Z,61.21
2023-03-18T00:35:26.036Z,61.32
2023-03-18T00:36:26.099Z,61.21
2023-03-18T00:37:26.238Z,61.52
2023-03-18T00:38:26.406Z,61.32
2023-03-18T00:39:26.624Z,61.32
2023-03-18T00:40:26.773Z,61.62
2023-03-18T00:41:26.923Z,61.52
2023-03-18T00:42:27.093Z,61.62
2023-03-18T00:43:27.230Z,61.62
2023-03-18T00:44:27.398Z,61.55
2023-03-18T00:45:27.546Z,61.65
2023-03-18T00:46:27.730Z,61.86
2023-03-18T00:47:27.870Z,61.65
2023-03-18T00:48:28.055Z,61.65
2023-03-18T00:49:28.200Z,61.86
2023-03-18T00:50:28.364Z,61.86
2023-03-18T00:51:28.520Z,61.86
2023-03-18T00:52:31.057Z,61.86
2023-03-18T00:53:28.836Z,62.16
2023-03-18T00:54:29.000Z,61.76
2023-03-18T00:55:29.152Z,61.76
2023-03-18T00:56:29.312Z,61.76
2023-03-18T00:57:29.468Z,61.86
2023-03-18T00:58:29.634Z,61.86
2023-03-18T00:59:29.782Z,61.76
2023-03-18T01:00:30.281Z,61.86
2023-03-18T01:01:30.073Z,61.65
2023-03-18T01:02:30.301Z,61.55
2023-03-18T01:03:30.392Z,61.76
2023-03-18T01:04:30.577Z,61.96
2023-03-18T01:05:30.752Z,61.65
2023-03-18T01:06:30.935Z,61.88
2023-03-18T01:07:31.098Z,61.79
2023-03-18T01:08:31.264Z,61.88
2023-03-18T01:09:31.422Z,61.79
2023-03-18T01:10:31.806Z,61.88
2023-03-18T01:11:31.784Z,61.88
2023-03-18T01:12:31.944Z,61.79
2023-03-18T01:13:32.131Z,61.88
2023-03-18T01:14:32.288Z,61.99
2023-03-18T01:15:32.438Z,61.88
2023-03-18T01:16:33.596Z,61.88
2023-03-18T01:17:32.761Z,62.09
2023-03-18T01:18:32.926Z,61.99
2023-03-18T01:19:33.105Z,62.19
2023-03-18T01:20:33.650Z,62.19
2023-03-18T01:21:33.401Z,62.30
2023-03-18T01:22:33.575Z,62.09
2023-03-18T01:23:33.723Z,62.09
2023-03-18T01:24:33.898Z,62.09
2023-03-18T01:25:34.029Z,61.99
2023-03-18T01:26:34.202Z,62.09
2023-03-18T01:27:34.358Z,61.88
2023-03-18T01:28:34.534Z,61.88
2023-03-18T01:29:34.675Z,61.99
2023-03-18T01:30:34.830Z,62.09
2023-03-18T01:31:35.051Z,61.79
2023-03-18T01:32:35.110Z,61.99
2023-03-18T01:33:35.278Z,61.79
2023-03-18T01:34:35.457Z,61.99
2023-03-18T01:35:35.658Z,61.88
2023-03-18T01:36:35.820Z,62.09
2023-03-18T01:37:36.053Z,61.99
2023-03-18T01:38:36.133Z,61.99
2023-03-18T01:39:36.269Z,61.79
2023-03-18T01:40:36.438Z,61.99
2023-03-18T01:41:36.652Z,61.79
2023-03-18T01:42:36.787Z,61.79
2023-03-18T01:43:36.940Z,61.99
2023-03-18T01:44:37.106Z,61.99
2023-03-18T01:45:37.278Z,61.99
2023-03-18T01:46:37.463Z,61.99
2023-03-18T01:47:37.603Z,61.99
2023-03-18T01:48:37.768Z,61.99
2023-03-18T01:49:37.946Z,61.88
2023-03-18T01:50:38.105Z,61.88
2023-03-18T01:51:38.257Z,61.88
2023-03-18T01:52:38.410Z,61.68
2023-03-18T01:53:38.563Z,61.79
2023-03-18T01:54:38.738Z,61.58
2023-03-18T01:55:38.898Z,61.68
2023-03-18T01:56:39.069Z,61.88
2023-03-18T01:57:39.239Z,61.79
2023-03-18T01:58:39.442Z,61.68
2023-03-18T01:59:39.609Z,61.99
2023-03-18T02:00:39.810Z,61.79
2023-03-18T02:01:39.957Z,61.68
2023-03-18T02:02:40.133Z,61.47
2023-03-18T02:03:40.346Z,61.79
2023-03-18T02:04:40.434Z,61.68
2023-03-18T02:05:40.620Z,61.68
2023-03-18T02:06:40.790Z,61.58
2023-03-18T02:07:40.948Z,61.68
2023-03-18T02:08:41.139Z,61.88
2023-03-18T02:09:41.298Z,61.88
2023-03-18T02:10:41.459Z,61.99
2023-03-18T02:11:41.620Z,61.68
2023-03-18T02:12:41.770Z,61.68
2023-03-18T02:13:41.949Z,61.68
2023-03-18T02:14:42.121Z,61.88
2023-03-18T02:15:42.272Z,61.99
2023-03-18T02:16:42.527Z,61.99
2023-03-18T02:17:42.583Z,61.99
2023-03-18T02:18:42.769Z,61.99
2023-03-18T02:19:42.952Z,62.19
2023-03-18T02:20:43.126Z,61.88
2023-03-18T02:21:43.271Z,62.09
2023-03-18T02:22:43.444Z,62.19
2023-03-18T02:23:43.605Z,61.99
2023-03-18T02:24:43.791Z,61.79
2023-03-18T02:25:43.931Z,61.68
2023-03-18T02:26:44.077Z,61.68
2023-03-18T02:27:44.227Z,61.79
2023-03-18T02:28:44.405Z,61.68
2023-03-18T02:29:44.572Z,61.68
2023-03-18T02:30:44.805Z,61.47
2023-03-18T02:31:44.950Z,61.37
2023-03-18T02:32:45.159Z,61.47
2023-03-18T02:33:45.324Z,61.58
2023-03-18T02:34:45.486Z,61.37
2023-03-18T02:35:45.650Z,61.27
2023-03-18T02:36:45.796Z,61.47
2023-03-18T02:37:45.963Z,61.58
2023-03-18T02:38:46.139Z,61.68
2023-03-18T02:39:46.276Z,61.68
2023-03-18T02:40:46.464Z,61.37
2023-03-18T02:41:46.614Z,61.17
2023-03-18T02:42:46.804Z,61.37
2023-03-18T02:43:46.963Z,61.17
2023-03-18T02:44:47.146Z,61.07
2023-03-18T02:45:47.354Z,61.27
2023-03-18T02:46:47.488Z,60.55
2023-03-18T02:47:47.648Z,60.93
2023-03-18T02:48:47.845Z,61.07
2023-03-18T02:49:48.012Z,60.52
2023-03-18T02:50:48.184Z,60.63
2023-03-18T02:51:48.355Z,60.83
2023-03-18T02:52:48.526Z,60.52
2023-03-18T02:53:48.706Z,60.75
2023-03-18T02:54:48.867Z,60.42
2023-03-18T02:55:49.014Z,60.52
2023-03-18T02:56:49.181Z,60.42
2023-03-18T02:57:49.336Z,60.63
2023-03-18T02:58:51.650Z,60.83
2023-03-18T02:59:49.653Z,60.52
2023-03-18T03:00:49.811Z,60.52
2023-03-18T03:01:50.006Z,60.52
2023-03-18T03:02:50.192Z,60.42
2023-03-18T03:03:50.265Z,60.55
2023-03-18T03:04:50.433Z,60.75
2023-03-18T03:05:50.574Z,60.96
2023-03-18T03:06:50.730Z,60.96
2023-03-18T03:07:50.885Z,60.75
2023-03-18T03:08:51.065Z,60.86
2023-03-18T03:09:51.215Z,60.65
2023-03-18T03:10:51.378Z,60.96
2023-03-18T03:11:51.572Z,60.75
2023-03-18T03:12:51.742Z,60.86
2023-03-18T03:13:51.928Z,60.96
2023-03-18T03:14:52.074Z,60.86
2023-03-18T03:15:52.316Z,60.86
2023-03-18T03:16:52.392Z,60.96
2023-03-18T03:17:52.497Z,60.86
2023-03-18T03:18:52.670Z,60.75
2023-03-18T03:19:52.826Z,60.55
2023-03-18T03:20:52.981Z,60.45
2023-03-18T03:21:53.166Z,60.24
2023-03-18T03:22:53.333Z,60.75
2023-03-18T03:23:53.529Z,60.31
2023-03-18T03:24:57.147Z,60.21
2023-03-18T03:25:53.850Z,60.11
2023-03-18T03:26:54.020Z,60.21
2023-03-18T03:27:54.208Z,60.21
2023-03-18T03:28:54.368Z,60.31
2023-03-18T03:29:54.535Z,60.31
2023-03-18T03:30:54.716Z,60.01
2023-03-18T03:31:54.884Z,60.11
2023-03-18T03:32:55.091Z,59.91
2023-03-18T03:33:55.250Z,59.91
2023-03-18T03:34:55.400Z,59.80
2023-03-18T03:35:55.594Z,59.59
2023-03-18T03:36:55.738Z,59.80
2023-03-18T03:37:55.911Z,59.80
2023-03-18T03:38:56.079Z,59.91
2023-03-18T03:39:56.242Z,59.80
2023-03-18T03:40:56.419Z,59.70
2023-03-18T03:41:56.600Z,59.70
2023-03-18T03:42:56.770Z,60.21
2023-03-18T03:43:56.969Z,59.80
2023-03-18T03:44:57.120Z,59.80
2023-03-18T03:45:57.262Z,59.91
2023-03-18T03:46:57.410Z,60.01
2023-03-18T03:47:57.574Z,60.01
2023-03-18T03:48:57.728Z,59.59
2023-03-18T03:49:57.881Z,59.70
2023-03-18T03:51:05.045Z,59.70
2023-03-18T03:51:58.177Z,59.80
2023-03-18T03:52:58.335Z,59.91
2023-03-18T03:53:58.490Z,59.80
2023-03-18T03:54:58.636Z,59.70
2023-03-18T03:55:59.360Z,59.50
2023-03-18T03:56:59.093Z,59.39
2023-03-18T03:57:59.143Z,59.50
2023-03-18T03:58:59.292Z,59.50
2023-03-18T03:59:59.438Z,59.39
2023-03-18T04:00:59.572Z,59.59
2023-03-18T04:01:59.719Z,59.39
2023-03-18T04:02:59.899Z,59.59
2023-03-18T04:04:00.117Z,59.19
2023-03-18T04:05:00.223Z,59.50
2023-03-18T04:06:00.350Z,58.98
2023-03-18T04:07:00.481Z,58.98
2023-03-18T04:08:00.647Z,59.19
2023-03-18T04:09:00.800Z,59.19
2023-03-18T04:10:00.949Z,59.08
2023-03-18T04:11:01.097Z,59.19
2023-03-18T04:12:01.253Z,59.19
2023-03-18T04:13:01.447Z,59.50
2023-03-18T04:14:01.608Z,59.29
2023-03-18T04:15:05.612Z,59.08
2023-03-18T04:16:02.053Z,59.08
2023-03-18T04:17:02.123Z,59.08
2023-03-18T04:18:02.288Z,58.87
2023-03-18T04:19:02.460Z,59.16
2023-03-18T04:20:02.629Z,59.06
2023-03-18T04:21:02.779Z,58.95
2023-03-18T04:22:02.953Z,59.06
2023-03-18T04:23:03.104Z,58.95
2023-03-18T04:24:03.269Z,58.64
2023-03-18T04:25:03.429Z,58.23
2023-03-18T04:26:03.605Z,58.23
2023-03-18T04:27:03.757Z,58.44
2023-03-18T04:28:03.932Z,58.23
2023-03-18T04:29:04.090Z,58.23
2023-03-18T04:30:04.239Z,58.54
2023-03-18T04:31:04.471Z,58.64
2023-03-18T04:32:04.543Z,58.44
2023-03-18T04:33:04.750Z,58.44
2023-03-18T04:34:04.874Z,58.44
2023-03-18T04:35:05.060Z,58.44
2023-03-18T04:36:05.245Z,58.44
2023-03-18T04:37:05.322Z,58.54
2023-03-18T04:38:05.509Z,58.64
2023-03-18T04:39:05.663Z,58.75
2023-03-18T04:40:05.823Z,58.64
2023-03-18T04:41:05.987Z,58.75
2023-03-18T04:42:06.143Z,58.95
2023-03-18T04:43:06.292Z,58.85
2023-03-18T04:44:06.471Z,58.75
2023-03-18T04:45:06.583Z,59.06
2023-03-18T04:46:06.719Z,59.06
2023-03-18T04:47:06.898Z,59.29
2023-03-18T04:48:07.032Z,59.39
2023-03-18T04:49:07.174Z,59.29
2023-03-18T04:50:07.343Z,59.39
2023-03-18T04:51:07.488Z,59.39
2023-03-18T04:52:07.654Z,59.50
2023-03-18T04:53:07.798Z,59.70
2023-03-18T04:54:07.969Z,60.11
2023-03-18T04:55:08.175Z,59.91
2023-03-18T04:56:08.295Z,59.91
2023-03-18T04:57:08.445Z,59.59
2023-03-18T04:58:08.622Z,59.80
2023-03-18T04:59:08.775Z,60.01
2023-03-18T05:00:11.370Z,60.11
2023-03-18T05:01:09.077Z,60.03
2023-03-18T05:02:09.256Z,60.24
2023-03-18T05:03:09.409Z,60.14
2023-03-18T05:04:09.603Z,60.14
2023-03-18T05:05:09.745Z,60.24
2023-03-18T05:06:09.933Z,60.35
2023-03-18T05:07:10.084Z,60.45
2023-03-18T05:08:10.263Z,60.14
2023-03-18T05:09:10.408Z,60.35
2023-03-18T05:10:10.576Z,60.35
2023-03-18T05:11:10.734Z,60.65
2023-03-18T05:12:10.875Z,60.45
2023-03-18T05:13:11.062Z,60.65
2023-03-18T05:14:11.230Z,60.55
2023-03-18T05:15:12.141Z,60.75
2023-03-18T05:16:11.564Z,60.55
2023-03-18T05:17:11.702Z,60.65
2023-03-18T05:18:11.865Z,60.86
2023-03-18T05:19:12.852Z,60.86
2023-03-18T05:20:12.249Z,60.96
2023-03-18T05:21:12.392Z,60.86
2023-03-18T05:22:12.549Z,60.86
2023-03-18T05:23:12.700Z,60.86
2023-03-18T05:24:12.881Z,60.86
2023-03-18T05:25:13.025Z,60.96
2023-03-18T05:26:13.177Z,60.96
2023-03-18T05:27:13.379Z,60.99
2023-03-18T05:28:13.529Z,61.19
2023-03-18T05:29:14.859Z,61.19
2023-03-18T05:30:13.787Z,61.30
2023-03-18T05:31:13.952Z,61.30
2023-03-18T05:32:14.098Z,61.30
2023-03-18T05:33:14.251Z,61.40
2023-03-18T05:34:14.439Z,61.51
2023-03-18T05:35:14.583Z,61.30
2023-03-18T05:36:14.734Z,61.61
2023-03-18T05:37:14.896Z,61.30
2023-03-18T05:38:15.086Z,61.30
2023-03-18T05:39:15.256Z,61.61
2023-03-18T05:40:15.414Z,61.40
2023-03-18T05:41:15.593Z,61.51
2023-03-18T05:42:15.759Z,61.40
2023-03-18T05:43:15.936Z,61.61
2023-03-18T05:44:16.099Z,61.81
2023-03-18T05:45:16.285Z,61.51
2023-03-18T05:46:16.487Z,61.61
2023-03-18T05:47:16.566Z,61.30
2023-03-18T05:48:16.717Z,61.51
2023-03-18T05:49:16.885Z,61.51
2023-03-18T05:50:17.046Z,61.51
2023-03-18T05:51:17.189Z,61.51
2023-03-18T05:52:17.357Z,61.40
2023-03-18T05:53:17.504Z,61.51
2023-03-18T05:54:17.679Z,61.47
2023-03-18T05:55:17.829Z,61.61
2023-03-18T05:56:17.987Z,61.37
2023-03-18T05:57:18.124Z,61.37
2023-03-18T05:58:18.310Z,61.37
2023-03-18T05:59:18.480Z,61.47
2023-03-18T06:00:18.661Z,61.47
2023-03-18T06:01:18.823Z,61.27
2023-03-18T06:02:18.980Z,61.17
2023-03-18T06:03:19.149Z,61.27
2023-03-18T06:04:19.414Z,61.27
2023-03-18T06:05:19.550Z,61.27
2023-03-18T06:06:19.766Z,61.27
2023-03-18T06:07:19.806Z,61.07
2023-03-18T06:08:19.971Z,61.17
2023-03-18T06:09:20.140Z,61.07
2023-03-18T06:10:20.295Z,60.96
2023-03-18T06:11:20.471Z,61.27
2023-03-18T06:12:20.632Z,61.17
2023-03-18T06:13:20.775Z,60.86
2023-03-18T06:14:20.941Z,60.96
2023-03-18T06:15:21.100Z,61.07
2023-03-18T06:16:21.269Z,60.86
2023-03-18T06:17:21.399Z,60.96
2023-03-18T06:18:21.552Z,61.17
2023-03-18T06:19:21.752Z,60.96
2023-03-18T06:20:21.912Z,60.96
2023-03-18T06:21:22.058Z,61.07
2023-03-18T06:22:22.219Z,60.96
2023-03-18T06:23:22.365Z,61.17
2023-03-18T06:24:22.532Z,60.96
2023-03-18T06:25:22.679Z,61.07
2023-03-18T06:26:22.836Z,60.86
2023-03-18T06:27:22.982Z,60.96
2023-03-18T06:28:23.137Z,61.07
2023-03-18T06:29:23.311Z,61.27
2023-03-18T06:30:23.467Z,61.17
2023-03-18T06:31:23.707Z,61.27
2023-03-18T06:32:23.830Z,61.27
2023-03-18T06:33:23.969Z,61.37
2023-03-18T06:34:25.103Z,61.47
2023-03-18T06:35:24.246Z,61.37
2023-03-18T06:36:24.400Z,61.37
2023-03-18T06:37:24.552Z,61.27
2023-03-18T06:38:24.720Z,61.27
2023-03-18T06:39:24.882Z,61.27
2023-03-18T06:40:25.048Z,61.55
2023-03-18T06:41:25.187Z,61.44
2023-03-18T06:42:25.585Z,61.55
2023-03-18T06:43:25.496Z,61.14
2023-03-18T06:44:25.666Z,61.37
2023-03-18T06:45:25.855Z,61.37
2023-03-18T06:46:26.100Z,61.47
2023-03-18T06:47:26.110Z,61.47
2023-03-18T06:48:26.275Z,61.37
2023-03-18T06:49:26.428Z,61.37
2023-03-18T06:50:26.582Z,61.37
2023-03-18T06:51:26.711Z,61.47
2023-03-18T06:52:26.861Z,61.24
2023-03-18T06:53:27.009Z,61.35
2023-03-18T06:54:27.213Z,61.14
2023-03-18T06:55:27.341Z,61.35
2023-03-18T06:56:27.491Z,61.04
2023-03-18T06:57:27.643Z,61.00
2023-03-18T06:58:27.769Z,60.70
2023-03-18T06:59:27.919Z,60.60
2023-03-18T07:00:28.083Z,60.16
2023-03-18T07:01:28.221Z,60.05
2023-03-18T07:02:28.345Z,59.41
2023-03-18T07:03:28.488Z,58.77
2023-03-18T07:04:28.722Z,58.44
2023-03-18T07:05:28.758Z,57.69
2023-03-18T07:06:28.897Z,57.18
2023-03-18T07:07:29.067Z,57.59
2023-03-18T07:08:29.187Z,57.69
2023-03-18T07:09:29.354Z,58.10
2023-03-18T07:10:29.481Z,57.79
2023-03-18T07:11:29.626Z,57.89
2023-03-18T07:12:29.757Z,57.59
2023-03-18T07:13:29.896Z,58.00
2023-03-18T07:14:30.044Z,57.79
2023-03-18T07:15:30.183Z,57.66
2023-03-18T07:16:30.389Z,57.35
2023-03-18T07:17:30.408Z,57.35
2023-03-18T07:18:30.543Z,56.92
2023-03-18T07:19:30.700Z,56.82
2023-03-18T07:20:30.823Z,56.82
2023-03-18T07:21:30.972Z,56.38
2023-03-18T07:22:31.096Z,56.18
2023-03-18T07:23:31.241Z,55.62
2023-03-18T07:24:31.381Z,55.00
2023-03-18T07:25:31.732Z,55.33
2023-03-18T07:26:31.629Z,55.10
2023-03-18T07:27:31.777Z,55.00
2023-03-18T07:28:31.897Z,55.10
2023-03-18T07:29:32.075Z,55.54
2023-03-18T07:30:32.201Z,56.15
2023-03-18T07:31:32.379Z,56.38
2023-03-18T07:32:32.536Z,56.15
2023-03-18T07:33:32.661Z,55.92
2023-03-18T07:34:32.811Z,55.18
2023-03-18T07:35:33.159Z,54.87
2023-03-18T07:36:33.027Z,54.33
2023-03-18T07:37:33.171Z,53.67
2023-03-18T07:38:33.270Z,53.16
2023-03-18T07:39:33.430Z,52.73
2023-03-18T07:40:33.527Z,52.17
2023-03-18T07:41:35.444Z,51.46
2023-03-18T07:42:33.789Z,50.90
2023-03-18T07:43:33.917Z,50.16
2023-03-18T07:44:34.046Z,50.26
2023-03-18T07:45:34.313Z,50.70
2023-03-18T07:46:34.458Z,50.26
2023-03-18T07:47:34.485Z,50.26
2023-03-18T07:48:34.604Z,49.61
2023-03-18T07:49:34.722Z,49.96
2023-03-18T07:50:34.813Z,49.86
2023-03-18T07:51:34.919Z,49.73
2023-03-18T07:52:35.004Z,49.94
2023-03-18T07:53:35.098Z,49.53
2023-03-18T07:54:35.216Z,49.51
2023-03-18T07:55:35.348Z,48.77
2023-03-18T07:56:35.431Z,48.97
2023-03-18T07:57:35.527Z,49.33
2023-03-18T07:58:35.714Z,50.24
2023-03-18T07:59:35.741Z,49.26
2023-03-18T08:00:35.732Z,48.42
2023-03-18T08:01:35.825Z,48.32
2023-03-18T08:02:35.912Z,48.85
2023-03-18T08:03:36.099Z,49.48
2023-03-18T08:04:36.149Z,49.51
2023-03-18T08:05:36.244Z,50.14
2023-03-18T08:06:36.319Z,50.65
2023-03-18T08:07:36.424Z,50.55
2023-03-18T08:08:36.496Z,51.18
2023-03-18T08:09:36.596Z,51.81
2023-03-18T08:10:36.692Z,51.46
2023-03-18T08:11:37.026Z,50.60
2023-03-18T08:12:51.598Z,48.68
2023-03-18T08:13:37.933Z,47.31
2023-03-18T08:14:37.014Z,47.34
2023-03-18T08:15:37.097Z,47.62
2023-03-18T08:16:37.231Z,46.61
2023-03-18T08:17:37.298Z,47.44
2023-03-18T08:18:37.375Z,47.34
2023-03-18T08:19:37.511Z,47.56
2023-03-18T08:20:37.562Z,48.19
2023-03-18T08:21:37.653Z,48.78
2023-03-18T08:22:37.727Z,47.75
2023-03-18T08:23:37.825Z,47.42
2023-03-18T08:24:37.896Z,46.89
2023-03-18T08:25:37.968Z,46.22
2023-03-18T08:26:38.032Z,45.41
2023-03-18T08:27:38.113Z,44.96
2023-03-18T08:28:38.186Z,44.76
2023-03-18T08:29:38.268Z,44.35
2023-03-18T08:30:38.303Z,45.73
2023-03-18T08:31:38.413Z,46.01
2023-03-18T08:32:38.453Z,46.36
2023-03-18T08:33:38.419Z,46.79
2023-03-18T08:34:38.486Z,47.27
2023-03-18T08:35:38.627Z,46.64
2023-03-18T08:36:38.576Z,45.81
2023-03-18T08:37:38.652Z,46.24
2023-03-18T08:38:38.690Z,47.82
2023-03-18T08:39:38.770Z,48.88
2023-03-18T08:40:38.826Z,49.31
2023-03-18T08:41:38.903Z,50.25
2023-03-18T08:42:38.955Z,50.25
2023-03-18T08:43:39.250Z,50.23
2023-03-18T08:44:39.100Z,49.92
2023-03-18T08:45:39.210Z,50.45
2023-03-18T08:46:39.184Z,50.56
2023-03-18T08:47:39.244Z,51.09
2023-03-18T08:48:39.317Z,51.09
2023-03-18T08:49:39.459Z,51.39
2023-03-18T08:50:39.414Z,51.62
2023-03-18T08:51:39.493Z,52.35
2023-03-18T08:52:39.571Z,52.40
2023-03-18T08:53:39.673Z,51.16
2023-03-18T08:54:39.749Z,50.20
2023-03-18T08:55:39.872Z,49.87
2023-03-18T08:56:39.923Z,49.24
2023-03-18T08:57:40.030Z,49.02
2023-03-18T08:58:40.098Z,49.32
2023-03-18T08:59:40.199Z,47.96
2023-03-18T09:00:40.277Z,48.39
2023-03-18T09:01:40.423Z,49.02
2023-03-18T09:02:40.359Z,49.34
2023-03-18T09:03:40.548Z,49.11
2023-03-18T09:04:40.586Z,49.10
2023-03-18T09:05:40.666Z,49.19
2023-03-18T09:06:40.726Z,48.69
2023-03-18T09:07:40.821Z,49.11
2023-03-18T09:08:40.891Z,49.32
2023-03-18T09:09:43.951Z,48.90
2023-03-18T09:10:41.089Z,49.11
2023-03-18T09:11:41.169Z,48.79
2023-03-18T09:12:41.238Z,48.67
2023-03-18T09:13:41.314Z,48.65
2023-03-18T09:14:41.389Z,47.49
2023-03-18T09:15:41.459Z,46.78
2023-03-18T09:16:41.611Z,47.43
2023-03-18T09:17:56.647Z,47.83
2023-03-18T09:18:44.845Z,47.63
2023-03-18T09:19:41.636Z,47.61
2023-03-18T09:20:41.760Z,46.66
2023-03-18T09:21:41.807Z,45.81
2023-03-18T09:22:41.886Z,45.38
2023-03-18T09:23:41.995Z,45.18
2023-03-18T09:24:42.073Z,45.48
2023-03-18T09:25:42.130Z,45.36
2023-03-18T09:26:42.178Z,44.95
2023-03-18T09:27:42.235Z,44.53
2023-03-18T09:28:42.282Z,44.41
2023-03-18T09:29:42.381Z,44.21
2023-03-18T09:30:42.438Z,44.11
2023-03-18T09:31:42.501Z,43.88
2023-03-18T09:32:42.564Z,43.82
2023-03-18T09:33:42.652Z,44.65
2023-03-18T09:34:42.698Z,45.58
2023-03-18T09:35:42.813Z,45.81
2023-03-18T09:36:42.744Z,46.73
2023-03-18T09:37:42.797Z,46.21
2023-03-18T09:38:42.835Z,45.68
2023-03-18T09:39:42.902Z,45.78
2023-03-18T09:40:42.944Z,46.39
2023-03-18T09:41:42.991Z,45.56
2023-03-18T09:42:43.051Z,44.92
2023-03-18T09:43:43.200Z,43.87
2023-03-18T09:44:43.160Z,43.87
2023-03-18T09:45:43.247Z,43.74
2023-03-18T09:46:43.386Z,43.30
2023-03-18T09:47:43.300Z,42.18
2023-03-18T09:48:43.231Z,41.87
2023-03-18T09:49:43.293Z,42.25
2023-03-18T09:50:43.331Z,41.65
2023-03-18T09:51:50.376Z,41.97
2023-03-18T09:52:43.441Z,42.61
2023-03-18T09:53:46.163Z,42.78
2023-03-18T09:54:44.364Z,42.18
2023-03-18T09:55:43.417Z,41.77
2023-03-18T09:56:43.443Z,41.75
2023-03-18T09:57:43.490Z,41.47
2023-03-18T09:58:43.527Z,42.92
2023-03-18T09:59:43.564Z,42.88
2023-03-18T10:00:43.614Z,41.87
2023-03-18T10:01:43.664Z,42.46
2023-03-18T10:02:43.603Z,41.33
2023-03-18T10:03:43.697Z,41.65
2023-03-18T10:04:43.664Z,41.53
2023-03-18T10:05:43.688Z,41.55
2023-03-18T10:06:43.712Z,41.31
2023-03-18T10:07:43.740Z,41.35
2023-03-18T10:08:43.762Z,38.89
2023-03-18T10:09:43.785Z,38.70
2023-03-18T10:10:43.811Z,38.78
2023-03-18T10:11:43.838Z,38.49
2023-03-18T10:12:43.867Z,38.91
2023-03-18T10:13:43.877Z,39.13
2023-03-18T10:14:43.934Z,39.97
2023-03-18T10:15:43.848Z,40.47
2023-03-18T10:16:43.843Z,40.67
2023-03-18T10:17:43.845Z,40.37
2023-03-18T10:18:43.856Z,40.33
2023-03-18T10:19:43.843Z,39.11
2023-03-18T10:20:43.855Z,39.39
2023-03-18T10:21:43.860Z,39.01
2023-03-18T10:22:43.877Z,39.22
2023-03-18T10:23:43.878Z,39.83
2023-03-18T10:24:43.880Z,40.47
2023-03-18T10:25:43.898Z,40.89
2023-03-18T10:26:43.906Z,42.68
2023-03-18T10:27:43.901Z,44.24
2023-03-18T10:28:43.921Z,44.97
2023-03-18T10:29:43.925Z,45.59
2023-03-18T10:30:43.935Z,45.27
2023-03-18T10:31:43.959Z,44.73
2023-03-18T10:32:49.901Z,43.98
2023-03-18T10:33:44.937Z,43.32
2023-03-18T10:34:43.962Z,41.89
2023-03-18T10:35:43.999Z,41.67
2023-03-18T10:36:44.050Z,40.83
2023-03-18T10:37:45.010Z,40.63
2023-03-18T10:38:44.035Z,41.07
2023-03-18T10:39:44.072Z,41.82
2023-03-18T10:40:44.125Z,42.74
2023-03-18T10:41:44.161Z,42.82
2023-03-18T10:42:44.197Z,42.30
2023-03-18T10:43:44.205Z,42.27
2023-03-18T10:44:44.213Z,42.38
2023-03-18T10:45:44.229Z,41.66
2023-03-18T10:46:44.444Z,41.24
2023-03-18T10:47:44.267Z,41.02
2023-03-18T10:48:44.289Z,41.02
2023-03-18T10:49:44.294Z,40.80
2023-03-18T10:50:44.325Z,40.53
2023-03-18T10:51:44.327Z,40.75
2023-03-18T10:52:44.347Z,41.91
2023-03-18T10:53:44.354Z,42.74
2023-03-18T10:54:44.407Z,42.60
2023-03-18T10:55:44.326Z,42.16
2023-03-18T10:56:44.347Z,40.50
2023-03-18T10:57:44.347Z,39.98
2023-03-18T10:58:44.374Z,39.76
2023-03-18T10:59:44.393Z,39.87
2023-03-18T11:00:44.427Z,40.81
2023-03-18T11:01:44.524Z,40.59
2023-03-18T11:02:44.500Z,40.71
2023-03-18T11:03:44.386Z,40.89
2023-03-18T11:04:44.396Z,39.64
2023-03-18T11:05:44.412Z,39.56
2023-03-18T11:06:44.443Z,39.52
2023-03-18T11:07:44.450Z,39.10
2023-03-18T11:08:44.442Z,39.74
2023-03-18T11:09:44.427Z,41.24
2023-03-18T11:10:44.443Z,43.92
2023-03-18T11:11:44.442Z,45.49
2023-03-18T11:12:44.446Z,45.49
2023-03-18T11:13:44.481Z,45.37
2023-03-18T11:14:44.506Z,45.69
2023-03-18T11:15:44.590Z,45.79
2023-03-18T11:16:44.527Z,46.51
2023-03-18T11:17:44.527Z,47.04
2023-03-18T11:18:44.603Z,47.86
2023-03-18T11:19:44.588Z,48.90
2023-03-18T11:20:44.640Z,49.12
2023-03-18T11:21:44.592Z,49.52
2023-03-18T11:22:44.631Z,48.97
2023-03-18T11:23:44.669Z,48.35
2023-03-18T11:24:44.725Z,48.44
2023-03-18T11:25:44.777Z,48.35
2023-03-18T11:26:44.834Z,48.25
2023-03-18T11:27:44.859Z,48.44
2023-03-18T11:28:44.923Z,48.12
2023-03-18T11:29:46.723Z,47.52
2023-03-18T11:30:45.400Z,47.52
2023-03-18T11:31:45.107Z,47.62
2023-03-18T11:32:45.071Z,48.27
2023-03-18T11:33:45.112Z,49.10
2023-03-18T11:34:45.159Z,49.77
2023-03-18T11:35:45.274Z,48.87
2023-03-18T11:36:45.217Z,48.27
2023-03-18T11:37:45.258Z,48.35
2023-03-18T11:38:45.311Z,48.67
2023-03-18T11:39:45.346Z,48.97
2023-03-18T11:40:45.416Z,49.60
2023-03-18T11:41:45.459Z,50.83
2023-03-18T11:42:45.525Z,50.83
2023-03-18T11:43:45.569Z,50.43
2023-03-18T11:44:45.631Z,50.31
2023-03-18T11:45:45.688Z,49.88
2023-03-18T11:46:45.928Z,49.55
2023-03-18T11:47:45.774Z,48.83
2023-03-18T11:48:45.825Z,48.50
2023-03-18T11:49:45.873Z,47.55
2023-03-18T11:50:45.929Z,46.38
2023-03-18T11:51:45.981Z,46.06
2023-03-18T11:52:46.059Z,45.14
2023-03-18T11:53:46.108Z,44.93
2023-03-18T11:54:46.151Z,44.93
2023-03-18T11:55:46.215Z,44.62
2023-03-18T11:56:46.248Z,45.24
2023-03-18T11:57:46.285Z,45.76
2023-03-18T11:58:46.335Z,45.12
2023-03-18T11:59:46.359Z,44.07
2023-03-18T12:00:46.423Z,43.11
2023-03-18T12:01:46.466Z,42.51
2023-03-18T12:02:46.487Z,42.81
2023-03-18T12:03:46.495Z,42.71
2023-03-18T12:04:46.564Z,43.13
2023-03-18T12:05:46.552Z,43.63
2023-03-18T12:06:46.557Z,44.27
2023-03-18T12:07:46.613Z,44.67
2023-03-18T12:08:46.627Z,44.57
2023-03-18T12:09:46.603Z,44.45
2023-03-18T12:10:46.622Z,45.29
2023-03-18T12:11:46.637Z,46.44
2023-03-18T12:12:46.640Z,47.44
2023-03-18T12:13:46.628Z,45.72
2023-03-18T12:14:46.640Z,45.27
2023-03-18T12:15:46.680Z,44.83
2023-03-18T12:16:46.736Z,43.69
2023-03-18T12:17:46.631Z,43.15
2023-03-18T12:18:46.626Z,43.29
2023-03-18T12:19:46.634Z,43.49
2023-03-18T12:20:46.739Z,43.51
2023-03-18T12:21:46.621Z,43.83
2023-03-18T12:22:46.633Z,43.71
2023-03-18T12:23:48.496Z,43.73
2023-03-18T12:24:46.638Z,44.67
2023-03-18T12:25:46.648Z,45.17
2023-03-18T12:26:46.657Z,44.95
2023-03-18T12:27:46.666Z,44.61
2023-03-18T12:28:46.697Z,44.09
2023-03-18T12:29:46.757Z,43.35
2023-03-18T12:30:46.760Z,42.97
2023-03-18T12:31:46.871Z,43.15
2023-03-18T12:32:46.768Z,42.83
2023-03-18T12:33:46.778Z,42.73
2023-03-18T12:34:46.751Z,42.31
2023-03-18T12:35:46.787Z,41.50
2023-03-18T12:36:46.763Z,42.31
2023-03-18T12:37:46.700Z,41.91
2023-03-18T12:38:46.718Z,41.99
2023-03-18T12:39:46.722Z,41.77
2023-03-18T12:40:46.698Z,41.87
2023-03-18T12:41:46.703Z,41.47
2023-03-18T12:42:46.685Z,41.25
2023-03-18T12:43:46.699Z,41.50
2023-03-18T12:44:46.700Z,41.79
2023-03-18T12:45:46.737Z,43.37
2023-03-18T12:46:46.687Z,44.41
2023-03-18T12:47:46.693Z,45.17
2023-03-18T12:48:46.664Z,46.30
2023-03-18T12:49:46.632Z,46.17
2023-03-18T12:50:46.636Z,44.99
2023-03-18T12:51:46.618Z,43.55
2023-03-18T12:52:46.605Z,43.52
2023-03-18T12:53:46.622Z,42.91